Relevés horaires Bierset (Belgique)


Relevés horaires à Bierset - Dimanche 21 Janv. 2024
Heure UTC1 Température [°C] Vent [km/h] Hum. [%] Pres.4 [hPa] Visi. [Km] Nébu. [octa] Préc.5 [mm] Cond.
2m. Res. Ros. Dir.2 Vit. Moy. Raf.3
23:00 6.2 2.5 4.3 S 20.4 22.2 31.5 88 1015.7(-4.2/3h) 30 7/8 -- --
22:00 5.6 2 3.7 SSO 18.5 22.2 33.3 88 1017.5(-2.9/3h) 30 7/8 -- --
21:00 5.1 0.9 3.0 S 22.2 22.2 31.5 86 1018.1(-2.4/3h) 30 7/8 -- --
20:00 4.3 0.1 2.4 SSO 20.4 22.2 31.5 87 1020.1(-1.3/3h) 30 7/8 -- --
19:00 3.9 -0.4 2.0 S 20.4 20.4 29.6 87 1020.6(-1.3/3h) 30 7/8 -- --
18:00 3.6 -0.5 1.1 S 18.5 22.2 29.6 84 1020.7(-1.7/3h) 30 7/8 0/12h
--
17:00 3.4 -0.8 0.6 S 18.5 22.2 29.6 82 1021.4(-1.2/3h) 30 7/8 -- --
16:00 2.9 -1.1 -0.3 S 16.7 18.5 27.8 79 1022.1(-0.6/3h) 30 8/8 -- --
15:00 3.0 -1.3 -0.8 S 18.5 18.5 27.8 76 1022.5(0.0/3h) 30 6/8 -- --
14:00 2.9 -1.4 -0.9 S 18.5 18.5 27.8 76 1022.7(-0.5/3h) 30 7/8 -- Nuages se développant
13:00 2.6 -1.5 -1.3 S 16.7 16.7 25.9 75 1022.7(-0.5/3h) 30 7/8 -- --
12:00 2.5 -1.6 -2.3 S 16.7 20.4 29.6 71 1022.6(0.1/3h) 30 7/8 0/6h
--
11:00 1.8 -2.5 -3.7 S 16.7 18.5 27.8 67 1023.2(1.0/3h) 30 7/8 -- --
10:00 1.3 -3.1 -5.0 S 16.7 20.4 27.8 63 1023.4(1.3/3h) 30 7/8 -- --
09:00 0.7 -3.8 -6.5 S 16.7 20.4 27.8 58 1022.7(0.4/3h) 30 7/8 -- --
08:00 0.2 -4.8 -8.3 S 18.5 20.4 25.9 53 1022.3(-0.4/3h) 30 7/8 -- --
07:00 0.5 -4.1 -8.3 S 16.7 18.5 25.9 52 1022.2(0.2/3h) 30 7/8 -- --
06:00 0.5 -3.8 -8.0 S 14.8 20.4 29.6 53 1022.2(-0.4/3h) 30 7/8 0/12h
--
05:00 -0.1 -4.8 -7.6 S 16.7 16.7 24.1 57 1022.9(-0.5/3h) 30 7/8 -- --
04:00 -0.1 -4.5 -7.5 S 14.8 18.5 25.9 57 1022.4(-1.8/3h) 30 6/8 -- --
03:00 0.0 -4.7 -8.0 S 16.7 18.5 29.6 55 1022.7(-2.6/3h) 30 6/8 -- --
02:00 1.0 -3.5 -9.4 S 16.7 16.7 27.8 46 1023.3(-2.6/3h) 30 6/8 -- --
01:00 0.2 -4.1 -9.3 S 14.8 14.8 20.4 49 1024.3(-2.3/3h) 30 6/8 -- --
00:00 -0.3 -4.4 -9.8 S 13.0 13.0 24.1 49 1025.4(-2.3/3h) 30 5/8 0/6h
0/24h
--

1 Coordinated Universal Time. Actuellement il est 05:00 locale et 03:00 UTC.

2 Le vent souffle depuis la direction indiquée vers la direction oposée.

3 Les rafales max. sont disponible 40 min après l'heure du relevé.

4 Pour les stations d'altitude (plus de 600m) le géopotentiel du niveau le plus proche de la pression obligatoire est indiqué.

5 Les stations disposant d'un diffuseur peuvent indiquer "trace". Cela signifie que des précipitations ont touchés le sol mais que la quantité est inférieure à 0.1 mm.

Récapitulatif de la journée
Température [°C] Vent [km/h] Ensoleillement4 [h] Precipitations totale5 [mm] Pression [Hpa]
Min1 Max.2 Moy.3 Max. Min Max.
-2.4 3.9 19.3 33.3 0 h 0 min 0 1015.7 1025.4

1 Température minimale relevée entre 18:00 UTC la veille et 18:00 UTC le jour donné.

2 Température maximale relevée entre 06:00 UTC le jour donné et 06:00 UTC le lendemain.

3 Vent moyen de la journée basé sur les relevés horaires.

4 Ensoleillement en heures relevé entre 06:00 UTC la veille et 06:00 UTC le jour donné.

5 Précipitations totales tombées entre 06:00 UTC la jour donné et 06:00 UTC le lendemain.

Graphiques horaires